Time;durP1;ratioP1;P1;durP2;ratioP2;P2;SDS_P1;SDS_P2;PMS_P1;PMS_P2;Temp;Humidity;BMP_temperature;BMP_pressure;BME280_temperature;BME280_humidity;BME280_pressure;Samples;Min_cycle;Max_cycle;Signal;HPM_P1;HPM_P2
2022/01/12 00:01:09;;;;;;;12.57;7.00;;;;;;;-1.76;100.00;95264.50;5073509;28;20210;-80
2022/01/12 00:03:37;;;;;;;11.33;6.43;;;;;;;-1.74;100.00;95255.00;5066960;28;20292;-80
2022/01/12 00:06:06;;;;;;;10.80;6.50;;;;;;;-1.69;100.00;95257.16;5073201;28;20726;-81
2022/01/12 00:08:34;;;;;;;11.63;6.33;;;;;;;-1.73;100.00;95259.16;5058288;28;20281;-81
2022/01/12 00:11:02;;;;;;;13.73;6.93;;;;;;;-1.67;100.00;95262.94;5065374;28;20210;-81
2022/01/12 00:13:31;;;;;;;13.20;6.77;;;;;;;-1.66;100.00;95268.84;5067746;28;20237;-80
2022/01/12 00:16:02;;;;;;;12.87;6.87;;;;;;;-1.68;100.00;95274.06;5075717;28;20208;-80
2022/01/12 00:18:30;;;;;;;14.03;7.07;;;;;;;-1.74;100.00;95262.66;5073408;28;20212;-80
2022/01/12 00:20:58;;;;;;;11.43;6.33;;;;;;;-1.64;100.00;95267.75;5073687;28;20224;-80
2022/01/12 00:23:25;;;;;;;12.60;6.97;;;;;;;-1.64;100.00;95256.75;5076705;28;20193;-81
2022/01/12 00:26:13;;;;;;;12.90;6.50;;;;;;;-1.57;100.00;95275.72;5066201;28;20202;-80
2022/01/12 00:34:26;;;;;;;13.23;6.37;;;;;;;-1.49;100.00;95291.16;5062087;28;20205;-80
2022/01/12 00:36:54;;;;;;;11.63;6.60;;;;;;;-1.53;100.00;95288.06;5070134;28;20649;-80
2022/01/12 00:39:23;;;;;;;12.63;7.07;;;;;;;-1.54;100.00;95289.00;5073246;28;20212;-80
2022/01/12 00:41:51;;;;;;;10.83;6.63;;;;;;;-1.51;100.00;95290.47;5061590;28;20286;-80
2022/01/12 00:44:24;;;;;;;11.83;6.80;;;;;;;-1.53;100.00;95280.41;5064515;28;20210;-82
2022/01/12 00:46:54;;;;;;;10.90;6.43;;;;;;;-1.42;100.00;95282.06;5083911;28;20232;-81
2022/01/12 00:49:22;;;;;;;12.50;6.43;;;;;;;-1.35;100.00;95281.41;5080850;28;20727;-81
2022/01/12 00:51:54;;;;;;;11.33;6.47;;;;;;;-1.48;100.00;95280.84;5073591;28;20303;-81
2022/01/12 00:54:22;;;;;;;12.27;6.70;;;;;;;-1.54;100.00;95280.53;5072938;28;20652;-82
2022/01/12 00:56:51;;;;;;;10.50;6.20;;;;;;;-1.59;100.00;95280.94;5073094;28;20631;-81
2022/01/12 00:59:18;;;;;;;11.77;6.20;;;;;;;-1.62;100.00;95278.66;5072825;28;20735;-81
2022/01/12 01:01:46;;;;;;;9.93;5.87;;;;;;;-1.52;100.00;95278.66;5066177;28;20220;-81
2022/01/12 01:04:17;;;;;;;13.07;6.30;;;;;;;-1.54;100.00;95278.00;5072987;28;20197;-81
2022/01/12 01:06:45;;;;;;;13.57;6.67;;;;;;;-1.51;100.00;95276.00;5073098;28;20280;-81
2022/01/12 01:09:12;;;;;;;10.67;6.07;;;;;;;-1.74;100.00;95257.56;5052997;28;20293;-81
2022/01/12 01:11:40;;;;;;;13.13;6.37;;;;;;;-1.56;100.00;95275.59;5052083;28;20201;-81
2022/01/12 01:14:15;;;;;;;12.43;6.40;;;;;;;-1.58;99.55;95280.00;5066236;28;20205;-81
2022/01/12 01:16:51;;;;;;;9.63;5.57;;;;;;;-1.66;99.52;95284.13;5068252;28;20204;-80
2022/01/12 01:27:46;;;;;;;12.27;6.07;;;;;;;-1.78;100.00;95291.84;5068916;28;20200;-79
2022/01/12 01:30:15;;;;;;;10.70;5.53;;;;;;;-1.78;100.00;95279.13;5074806;28;20216;-79
2022/01/12 01:32:44;;;;;;;10.80;6.00;;;;;;;-1.69;100.00;95286.91;5064005;28;20237;-81
2022/01/12 01:35:14;;;;;;;11.97;6.73;;;;;;;-1.74;99.89;95289.88;5071245;28;20201;-81
2022/01/12 01:37:41;;;;;;;9.73;5.63;;;;;;;-1.69;99.21;95287.72;5060933;28;20252;-81
2022/01/12 01:40:11;;;;;;;10.13;5.93;;;;;;;-1.81;99.65;95287.00;5056437;28;20267;-81
2022/01/12 01:42:55;;;;;;;9.87;6.07;;;;;;;-1.84;100.00;95292.34;5071534;28;20212;-79
2022/01/12 01:53:39;;;;;;;8.43;5.30;;;;;;;-1.85;98.51;95292.50;5052424;28;20201;-81
2022/01/12 01:56:09;;;;;;;10.87;5.63;;;;;;;-1.95;99.13;95291.63;5071433;28;20280;-81
2022/01/12 01:58:37;;;;;;;10.80;5.80;;;;;;;-1.90;99.05;95303.03;5065930;28;20252;-81
2022/01/12 02:01:06;;;;;;;10.33;6.00;;;;;;;-1.92;99.51;95297.28;5064109;28;20209;-78
2022/01/12 02:03:34;;;;;;;10.80;5.20;;;;;;;-1.95;99.01;95299.25;5070487;28;20292;-79
2022/01/12 02:06:04;;;;;;;13.13;6.00;;;;;;;-1.91;99.10;95308.28;5064339;28;20213;-80
2022/01/12 02:08:32;;;;;;;9.60;5.27;;;;;;;-1.95;99.09;95291.63;5071154;28;20200;-79
2022/01/12 02:11:00;;;;;;;10.07;5.23;;;;;;;-1.92;99.12;95304.91;5070985;28;20293;-78
2022/01/12 02:13:29;;;;;;;10.10;5.60;;;;;;;-1.86;98.80;95303.59;5070272;28;20204;-78
2022/01/12 02:15:58;;;;;;;8.83;5.40;;;;;;;-1.89;98.33;95297.03;5071751;28;20561;-78
2022/01/12 02:18:39;;;;;;;9.63;5.37;;;;;;;-1.93;98.46;95300.75;5063301;28;20287;-77
2022/01/12 02:40:34;;;;;;;11.13;6.20;;;;;;;-2.12;98.03;95333.75;5063715;28;20586;-78
2022/01/12 02:43:09;;;;;;;9.23;5.77;;;;;;;-2.09;98.25;95328.41;5064606;28;20212;-78
2022/01/12 02:51:14;;;;;;;10.70;5.27;;;;;;;-2.11;98.31;95342.19;5063560;28;20199;-77
2022/01/12 02:53:44;;;;;;;8.43;5.27;;;;;;;-2.27;97.85;95329.88;5062814;28;21012;-78
2022/01/12 02:56:13;;;;;;;8.60;5.50;;;;;;;-2.22;97.52;95335.41;5074060;28;20201;-78
2022/01/12 02:58:42;;;;;;;10.93;5.47;;;;;;;-2.20;97.85;95341.19;5062828;28;20221;-79
2022/01/12 03:03:59;;;;;;;10.80;5.60;;;;;;;-2.07;97.73;95352.00;5059247;28;20209;-80
2022/01/12 03:06:30;;;;;;;9.63;5.50;;;;;;;-2.17;97.37;95352.88;5070292;28;20960;-79
2022/01/12 03:09:00;;;;;;;12.77;5.40;;;;;;;-2.11;97.37;95354.91;5070446;28;20201;-80
2022/01/12 03:11:29;;;;;;;10.33;6.00;;;;;;;-2.16;97.63;95349.38;5071020;28;20681;-80
2022/01/12 03:13:57;;;;;;;9.77;5.80;;;;;;;-2.15;97.50;95364.53;5070782;28;20198;-79
2022/01/12 03:16:26;;;;;;;11.83;6.47;;;;;;;-2.21;97.52;95369.31;5072028;28;20280;-79
2022/01/12 03:18:56;;;;;;;11.00;5.60;;;;;;;-2.32;97.79;95352.34;5070530;28;20221;-79
2022/01/12 03:21:26;;;;;;;9.47;5.70;;;;;;;-2.24;97.50;95370.34;5072374;28;20204;-80
2022/01/12 03:23:54;;;;;;;8.97;5.60;;;;;;;-2.13;97.32;95367.75;5077327;28;20194;-80
2022/01/12 03:26:25;;;;;;;10.17;5.80;;;;;;;-2.17;97.10;95376.59;5070189;28;20237;-79
2022/01/12 03:28:54;;;;;;;12.40;5.80;;;;;;;-2.20;97.10;95376.84;5064531;28;20661;-79
2022/01/12 03:31:24;;;;;;;9.30;5.43;;;;;;;-2.18;96.72;95377.50;5064194;28;20240;-79
2022/01/12 03:33:58;;;;;;;11.33;6.10;;;;;;;-2.23;97.25;95381.34;5064705;28;20623;-79
2022/01/12 04:09:26;;;;;;;13.50;6.67;;;;;;;-2.10;96.41;95430.34;5069410;28;20195;-77
2022/01/12 04:11:54;;;;;;;15.70;7.30;;;;;;;-2.02;96.27;95433.09;5072949;28;20205;-77
2022/01/12 04:14:23;;;;;;;10.57;6.13;;;;;;;-1.96;96.08;95430.03;5072503;28;20209;-77
2022/01/12 04:16:51;;;;;;;14.83;6.93;;;;;;;-1.96;95.65;95433.41;5073200;28;20217;-77
2022/01/12 04:19:18;;;;;;;11.43;6.63;;;;;;;-1.88;95.70;95448.91;5072602;28;20229;-78
2022/01/12 04:21:49;;;;;;;12.40;6.53;;;;;;;-1.88;95.86;95445.53;5074496;28;20197;-77
2022/01/12 04:24:17;;;;;;;14.43;7.17;;;;;;;-1.89;95.90;95443.91;5071713;28;20202;-77
2022/01/12 04:26:45;;;;;;;12.80;6.87;;;;;;;-1.89;95.32;95457.47;5071767;28;20210;-78
2022/01/12 04:29:13;;;;;;;13.17;6.83;;;;;;;-1.81;95.62;95456.84;5072487;28;20676;-77
2022/01/12 04:31:42;;;;;;;15.17;9.10;;;;;;;-1.77;94.89;95456.47;5072175;28;20723;-77
2022/01/12 04:34:10;;;;;;;12.50;7.23;;;;;;;-1.72;94.68;95467.09;5071934;28;20263;-77
2022/01/12 04:36:37;;;;;;;13.57;6.70;;;;;;;-1.85;94.75;95456.25;5071749;28;20239;-77
2022/01/12 04:39:07;;;;;;;11.80;7.13;;;;;;;-1.82;94.74;95462.88;5071615;28;20267;-77
2022/01/12 04:41:36;;;;;;;13.03;6.70;;;;;;;-1.72;94.49;95463.75;5071927;28;20259;-77
2022/01/12 04:44:06;;;;;;;14.60;6.93;;;;;;;-1.67;94.09;95471.81;5071168;28;20197;-77
2022/01/12 04:46:49;;;;;;;15.37;7.17;;;;;;;-1.64;93.66;95461.38;5068993;28;20206;-77
2022/01/12 04:49:36;;;;;;;12.43;6.90;;;;;;;-1.46;93.49;95475.19;5071796;28;20202;-78
2022/01/12 04:52:04;;;;;;;13.33;6.93;;;;;;;-1.56;93.31;95479.44;5071557;28;20299;-81
2022/01/12 04:54:34;;;;;;;12.27;7.07;;;;;;;-1.53;93.07;95476.59;5072626;28;20309;-79
2022/01/12 04:57:01;;;;;;;14.20;7.53;;;;;;;-1.52;93.37;95482.50;5072450;28;20212;-79
2022/01/12 04:59:31;;;;;;;14.90;6.90;;;;;;;-1.45;92.90;95489.56;5072463;28;20260;-80
2022/01/12 05:02:12;;;;;;;13.30;7.40;;;;;;;-1.45;92.41;95476.00;5063783;28;20260;-81
2022/01/12 05:07:28;;;;;;;18.07;9.53;;;;;;;-1.38;92.19;95502.59;5052773;28;20186;-81
2022/01/12 05:12:51;;;;;;;17.47;8.77;;;;;;;-1.51;92.94;95502.78;5069744;28;21225;-81
2022/01/12 05:15:25;;;;;;;19.20;8.83;;;;;;;-1.62;93.11;95505.38;5056539;28;20200;-81
2022/01/12 05:17:54;;;;;;;17.33;9.20;;;;;;;-1.50;92.64;95509.47;5072874;28;20200;-81
2022/01/12 05:20:22;;;;;;;19.77;9.00;;;;;;;-1.50;92.20;95514.56;5072455;28;20209;-80
2022/01/12 05:22:49;;;;;;;16.20;7.60;;;;;;;-1.46;91.60;95522.78;5073693;28;20201;-81
2022/01/12 05:25:19;;;;;;;15.90;7.57;;;;;;;-1.52;91.74;95520.72;5072397;28;20216;-80
2022/01/12 05:27:48;;;;;;;15.27;7.40;;;;;;;-1.68;92.54;95513.53;5072037;28;20207;-81
2022/01/12 05:30:15;;;;;;;13.30;7.20;;;;;;;-1.55;92.16;95539.63;5050356;28;20232;-73
2022/01/12 05:32:44;;;;;;;21.57;8.23;;;;;;;-1.48;92.02;95532.31;5069337;28;20316;-73
2022/01/12 05:35:13;;;;;;;14.97;7.57;;;;;;;-1.52;91.24;95534.28;5070261;28;20612;-71
2022/01/12 05:37:41;;;;;;;17.50;8.17;;;;;;;-1.55;91.19;95537.06;5069524;28;20274;-73
2022/01/12 05:40:10;;;;;;;18.70;8.23;;;;;;;-1.63;91.81;95539.44;5070309;28;20660;-74
2022/01/12 05:42:40;;;;;;;18.70;7.10;;;;;;;-1.57;91.60;95543.22;5063468;28;20646;-72
2022/01/12 05:45:09;;;;;;;15.27;8.00;;;;;;;-1.61;91.06;95546.94;5068426;28;20308;-73
2022/01/12 05:49:34;;;;;;;12.93;6.83;;;;;;;-1.73;91.30;95551.25;5073682;28;20197;-73
2022/01/12 05:50:29;;;;;;;13.03;6.90;;;;;;;-1.69;91.10;95552.66;5070448;28;20202;-73
2022/01/12 05:52:57;;;;;;;15.27;7.27;;;;;;;-1.74;90.82;95550.47;5069110;28;20205;-73
2022/01/12 05:55:25;;;;;;;13.43;6.93;;;;;;;-1.71;91.42;95557.06;5069409;28;20213;-72
2022/01/12 05:57:53;;;;;;;11.90;7.00;;;;;;;-1.62;90.77;95551.25;5068871;28;20217;-74
2022/01/12 06:00:23;;;;;;;14.53;6.93;;;;;;;-1.64;90.74;95563.28;5069172;28;20244;-71
2022/01/12 06:02:51;;;;;;;13.20;6.30;;;;;;;-1.68;90.51;95564.47;5068438;28;20209;-71
2022/01/12 06:05:20;;;;;;;19.07;7.20;;;;;;;-1.80;89.97;95555.25;5068810;28;20208;-79
2022/01/12 06:07:49;;;;;;;19.27;7.70;;;;;;;-1.69;90.40;95580.69;5067601;28;20206;-70
2022/01/12 06:10:17;;;;;;;15.40;6.93;;;;;;;-1.74;90.57;95582.78;5068950;28;20197;-71
2022/01/12 06:12:45;;;;;;;15.20;7.67;;;;;;;-1.84;90.93;95586.97;5068664;28;20201;-72
2022/01/12 06:15:14;;;;;;;18.70;7.87;;;;;;;-1.79;90.52;95593.31;5068250;28;20617;-72
2022/01/12 06:17:41;;;;;;;23.73;8.27;;;;;;;-1.79;90.99;95598.41;5068673;28;20232;-72
2022/01/12 06:20:09;;;;;;;16.90;7.33;;;;;;;-1.72;91.01;95603.84;5067948;28;20251;-72
2022/01/12 06:22:37;;;;;;;17.20;8.03;;;;;;;-1.78;90.20;95596.69;5067348;28;20729;-71
2022/01/12 06:25:09;;;;;;;19.63;8.37;;;;;;;-1.70;90.50;95599.44;5068184;28;20206;-72
2022/01/12 06:27:36;;;;;;;17.37;7.57;;;;;;;-1.70;90.73;95609.63;5068259;28;20193;-70
2022/01/12 06:31:10;;;;;;;16.60;7.30;;;;;;;-1.67;90.63;95609.38;5068221;28;20248;-70
2022/01/12 06:32:54;;;;;;;17.03;8.07;;;;;;;-1.66;90.14;95616.09;5067894;28;20727;-71
2022/01/12 06:35:22;;;;;;;17.40;7.43;;;;;;;-1.69;90.68;95623.97;5069113;28;20290;-70
2022/01/12 06:37:50;;;;;;;20.70;8.30;;;;;;;-1.74;91.04;95626.09;5068829;28;20205;-70
2022/01/12 06:40:19;;;;;;;16.47;8.30;;;;;;;-1.77;91.01;95608.50;5062495;28;20274;-70
2022/01/12 06:42:48;;;;;;;16.33;7.93;;;;;;;-1.58;90.43;95633.31;5069259;28;20194;-70
2022/01/12 06:45:16;;;;;;;13.30;7.03;;;;;;;-1.66;90.01;95626.28;5069326;28;20213;-75
2022/01/12 06:47:45;;;;;;;22.13;8.67;;;;;;;-1.67;90.55;95627.22;5068728;28;20201;-76
2022/01/12 06:50:15;;;;;;;23.17;8.07;;;;;;;-1.49;90.78;95637.72;5066625;28;20189;-70
2022/01/12 06:52:42;;;;;;;20.73;7.93;;;;;;;-1.53;89.94;95642.22;5067663;28;20676;-70
2022/01/12 06:55:10;;;;;;;17.27;8.20;;;;;;;-1.48;89.51;95637.59;5068607;28;20227;-71
2022/01/12 06:57:38;;;;;;;14.87;7.60;;;;;;;-1.48;89.92;95647.78;5068539;28;20240;-74
2022/01/12 07:00:07;;;;;;;12.77;7.30;;;;;;;-1.59;89.83;95641.91;5067726;28;20228;-70
2022/01/12 07:02:34;;;;;;;11.93;6.70;;;;;;;-1.78;89.60;95642.53;5068438;28;20201;-71
2022/01/12 07:05:02;;;;;;;12.73;7.10;;;;;;;-1.83;90.49;95650.53;5068173;28;20276;-70
2022/01/12 07:07:31;;;;;;;13.37;7.27;;;;;;;-1.82;90.73;95654.69;5067421;28;20395;-70
2022/01/12 07:09:59;;;;;;;16.73;7.53;;;;;;;-1.92;90.79;95651.22;5067586;28;20213;-71
2022/01/12 07:12:26;;;;;;;9.93;5.87;;;;;;;-1.89;90.49;95651.00;5068157;28;20224;-71
2022/01/12 07:14:54;;;;;;;10.73;5.93;;;;;;;-2.04;90.14;95662.34;5067525;28;20286;-69
2022/01/12 07:17:22;;;;;;;17.37;6.53;;;;;;;-2.03;90.48;95663.97;5067027;28;20745;-70
2022/01/12 07:19:49;;;;;;;12.80;6.73;;;;;;;-1.99;90.63;95656.94;5067290;28;20230;-70
2022/01/12 07:22:17;;;;;;;13.30;6.43;;;;;;;-1.95;90.43;95665.94;5070248;28;20220;-70
2022/01/12 07:24:47;;;;;;;11.70;6.27;;;;;;;-1.98;89.75;95669.53;5068230;28;20250;-70
2022/01/12 07:27:15;;;;;;;16.43;7.10;;;;;;;-1.91;89.92;95680.88;5067996;28;20200;-70
2022/01/12 07:29:43;;;;;;;19.23;7.67;;;;;;;-1.91;89.91;95678.31;5068279;28;20737;-70
2022/01/12 07:32:11;;;;;;;13.50;7.57;;;;;;;-1.82;89.43;95681.91;5068337;28;20291;-70
2022/01/12 07:34:40;;;;;;;13.60;7.57;;;;;;;-1.80;89.72;95680.03;5069200;28;20275;-71
2022/01/12 07:37:07;;;;;;;18.43;7.20;;;;;;;-1.87;88.85;95678.88;5068219;28;20205;-70
2022/01/12 07:39:34;;;;;;;9.93;6.13;;;;;;;-1.87;89.38;95689.88;5068249;28;20236;-72
2022/01/12 07:42:03;;;;;;;11.77;6.47;;;;;;;-1.94;89.72;95682.84;5068682;28;20657;-71
2022/01/12 07:44:30;;;;;;;11.73;7.10;;;;;;;-1.83;89.31;95682.81;5068751;28;20217;-70
2022/01/12 07:46:57;;;;;;;11.43;6.53;;;;;;;-1.82;89.33;95684.47;5071547;28;20213;-71
2022/01/12 07:49:24;;;;;;;13.60;6.93;;;;;;;-1.83;89.00;95688.72;5066218;28;21287;-70
2022/01/12 07:51:51;;;;;;;17.20;6.63;;;;;;;-1.65;88.69;95691.63;5067745;28;20205;-71
2022/01/12 07:54:18;;;;;;;10.87;6.67;;;;;;;-1.64;88.39;95694.94;5067579;28;20208;-72
2022/01/12 07:56:45;;;;;;;11.43;6.17;;;;;;;-1.58;88.36;95697.84;5067782;28;20649;-71
2022/01/12 07:59:14;;;;;;;12.60;6.43;;;;;;;-1.49;87.88;95701.41;5063877;28;20228;-71
2022/01/12 08:01:41;;;;;;;12.03;5.60;;;;;;;-1.53;86.86;95700.06;5063793;28;20205;-72
2022/01/12 08:04:08;;;;;;;9.03;4.83;;;;;;;-1.60;86.07;95709.91;5068383;28;20194;-70
2022/01/12 08:06:36;;;;;;;9.73;5.20;;;;;;;-1.65;86.31;95717.09;5068407;28;20240;-77
2022/01/12 08:09:07;;;;;;;7.47;4.90;;;;;;;-1.58;86.49;95725.06;5068529;28;20696;-82
2022/01/12 08:11:34;;;;;;;10.57;5.13;;;;;;;-1.60;85.83;95725.19;5068428;28;20366;-79
2022/01/12 08:14:02;;;;;;;8.37;5.20;;;;;;;-1.51;85.51;95731.31;5068616;28;20205;-77
2022/01/12 08:16:33;;;;;;;8.27;4.87;;;;;;;-1.36;85.82;95732.69;5075068;28;20201;-83
2022/01/12 08:19:00;;;;;;;11.67;5.37;;;;;;;-1.48;86.41;95734.44;5068408;28;20213;-76
2022/01/12 08:21:29;;;;;;;10.87;5.53;;;;;;;-1.49;85.39;95732.00;5065414;28;20636;-75
2022/01/12 08:23:57;;;;;;;10.13;5.13;;;;;;;-1.47;85.35;95733.50;5072048;28;20291;-76
2022/01/12 08:26:25;;;;;;;8.80;5.30;;;;;;;-1.38;84.36;95737.88;5071612;28;20205;-75
2022/01/12 08:28:53;;;;;;;7.97;5.00;;;;;;;-1.49;83.94;95745.56;5072084;28;20215;-76
2022/01/12 08:31:21;;;;;;;8.10;4.97;;;;;;;-1.69;84.88;95735.25;5071220;28;20241;-76
2022/01/12 08:33:53;;;;;;;7.43;4.50;;;;;;;-1.72;85.22;95749.84;5064883;28;20235;-76
2022/01/12 08:36:20;;;;;;;6.77;4.33;;;;;;;-1.81;85.37;95749.72;5072049;28;20211;-76
2022/01/12 08:38:48;;;;;;;8.77;4.77;;;;;;;-1.86;85.62;95747.53;5071799;28;20672;-76
2022/01/12 08:41:15;;;;;;;8.90;5.07;;;;;;;-1.80;85.45;95751.38;5073125;28;20208;-77
2022/01/12 08:43:43;;;;;;;8.53;5.03;;;;;;;-1.77;85.53;95748.59;5071406;28;20237;-83
2022/01/12 08:46:10;;;;;;;12.97;4.93;;;;;;;-1.75;85.10;95755.19;5074815;28;20207;-77
2022/01/12 08:48:38;;;;;;;9.17;4.87;;;;;;;-1.67;85.98;95749.50;5073552;28;20711;-76
2022/01/12 08:51:07;;;;;;;9.20;4.50;;;;;;;-1.61;85.56;95751.56;5072389;28;20197;-75
2022/01/12 08:53:35;;;;;;;7.23;4.60;;;;;;;-1.52;85.45;95757.72;5072103;28;20205;-78
2022/01/12 08:56:03;;;;;;;8.80;4.97;;;;;;;-1.40;84.46;95755.03;5071795;28;20201;-75
2022/01/12 08:58:31;;;;;;;7.53;4.67;;;;;;;-1.19;84.00;95763.59;5071312;28;20737;-80
2022/01/12 09:01:03;;;;;;;6.90;4.70;;;;;;;-1.21;83.78;95742.47;5071607;28;20609;-75
2022/01/12 09:03:31;;;;;;;9.17;5.07;;;;;;;-1.10;83.90;95761.25;5071646;28;20247;-76
2022/01/12 09:05:58;;;;;;;8.90;5.00;;;;;;;-1.01;83.83;95752.88;5071189;28;20233;-76
2022/01/12 09:08:28;;;;;;;7.73;4.73;;;;;;;-0.94;83.47;95759.94;5071102;28;20237;-76
2022/01/12 09:10:55;;;;;;;9.10;5.17;;;;;;;-1.01;82.55;95755.44;5071456;28;20265;-77
2022/01/12 09:13:22;;;;;;;7.73;4.73;;;;;;;-1.03;82.82;95744.53;5071643;28;20228;-76
2022/01/12 09:15:50;;;;;;;8.97;5.90;;;;;;;-0.95;82.78;95753.19;5073230;28;20205;-76
2022/01/12 09:18:18;;;;;;;7.43;4.67;;;;;;;-0.91;82.08;95749.47;5075345;28;20197;-77
2022/01/12 09:20:46;;;;;;;7.90;4.47;;;;;;;-0.88;82.60;95756.91;5070841;28;20228;-75
2022/01/12 09:23:13;;;;;;;9.67;4.30;;;;;;;-0.85;82.48;95738.78;5077341;28;20734;-76
2022/01/12 09:25:43;;;;;;;8.23;4.60;;;;;;;-0.62;81.99;95744.63;5074263;28;20200;-76
2022/01/12 09:28:11;;;;;;;9.37;5.23;;;;;;;-0.61;81.80;95744.47;5078845;28;20737;-74
2022/01/12 09:30:39;;;;;;;6.33;4.43;;;;;;;-0.59;81.65;95746.91;5075175;28;20657;-75
2022/01/12 09:33:07;;;;;;;7.27;4.03;;;;;;;-0.70;80.91;95747.78;5074662;28;20217;-75
2022/01/12 09:35:34;;;;;;;7.77;4.43;;;;;;;-0.79;81.10;95742.59;5073381;28;20209;-75
2022/01/12 09:38:01;;;;;;;6.23;3.83;;;;;;;-0.77;80.65;95746.66;5076467;28;20215;-75
2022/01/12 09:40:31;;;;;;;6.93;4.20;;;;;;;-0.88;80.82;95741.59;5074635;28;20229;-75
2022/01/12 09:43:05;;;;;;;7.43;4.33;;;;;;;-0.85;81.74;95748.19;5066112;28;20656;-75
2022/01/12 09:45:33;;;;;;;7.47;4.43;;;;;;;-0.90;80.99;95735.81;5081127;28;20228;-75
2022/01/12 09:48:01;;;;;;;9.03;4.07;;;;;;;-0.82;81.17;95740.28;5079964;28;20652;-75
2022/01/12 09:50:28;;;;;;;6.03;3.70;;;;;;;-0.69;80.67;95744.28;5081352;28;20704;-76
2022/01/12 09:52:56;;;;;;;5.60;3.77;;;;;;;-0.52;80.38;95745.50;5073394;28;20207;-74
2022/01/12 09:55:24;;;;;;;6.63;4.20;;;;;;;-0.40;79.44;95741.94;5076245;28;20227;-74
2022/01/12 09:57:51;;;;;;;7.20;3.77;;;;;;;-0.39;79.74;95743.56;5070021;28;20236;-75
2022/01/12 10:00:25;;;;;;;4.90;3.50;;;;;;;-0.24;79.26;95747.44;5070834;28;20312;-74
2022/01/12 10:02:53;;;;;;;5.73;3.90;;;;;;;0.06;79.18;95746.66;5070167;28;20204;-76
2022/01/12 10:05:31;;;;;;;11.03;4.00;;;;;;;0.29;76.79;95740.44;5069618;28;20209;-75
2022/01/12 10:08:12;;;;;;;7.43;4.20;;;;;;;1.17;75.50;95752.50;5070113;28;20297;-75
2022/01/12 10:10:41;;;;;;;7.13;4.13;;;;;;;2.01;72.02;95747.47;5070553;28;20637;-75
2022/01/12 10:13:22;;;;;;;6.30;3.77;;;;;;;1.88;71.77;95748.69;5069109;28;20213;-75
2022/01/12 10:15:53;;;;;;;8.20;3.63;;;;;;;1.67;72.49;95754.78;5071834;28;20664;-75
2022/01/12 10:18:22;;;;;;;7.17;3.87;;;;;;;1.64;72.43;95752.53;5072846;28;20746;-75
2022/01/12 10:20:51;;;;;;;7.17;4.33;;;;;;;1.53;72.05;95750.09;5070910;28;20319;-75
2022/01/12 10:23:23;;;;;;;9.53;4.43;;;;;;;1.17;73.34;95755.88;5069612;28;20195;-76
2022/01/12 10:25:51;;;;;;;6.00;3.67;;;;;;;1.12;73.99;95745.25;5070231;28;20661;-76
2022/01/12 10:28:20;;;;;;;7.07;4.13;;;;;;;1.12;73.26;95748.63;5069338;28;20205;-76
2022/01/12 10:30:57;;;;;;;7.90;4.70;;;;;;;1.00;73.39;95743.75;5069891;28;21341;-76
2022/01/12 10:33:26;;;;;;;7.40;4.60;;;;;;;1.25;73.93;95745.78;5070991;28;20297;-76
2022/01/12 10:36:00;;;;;;;8.37;4.50;;;;;;;1.69;72.39;95744.44;5069823;28;20682;-76
2022/01/12 10:38:30;;;;;;;7.33;4.40;;;;;;;1.63;71.79;95739.84;5069344;28;20237;-76
2022/01/12 10:40:59;;;;;;;9.40;4.87;;;;;;;1.44;72.01;95727.88;5069547;28;20225;-75
2022/01/12 10:43:35;;;;;;;6.27;4.67;;;;;;;1.02;72.99;95739.28;5068720;28;20290;-76
2022/01/12 10:46:06;;;;;;;7.30;4.40;;;;;;;0.73;74.29;95731.56;5071835;28;20232;-76
2022/01/12 10:48:40;;;;;;;10.47;5.13;;;;;;;0.69;74.79;95735.34;5069058;28;20208;-75
2022/01/12 10:51:08;;;;;;;7.53;4.53;;;;;;;0.77;74.40;95735.50;5068893;28;20248;-76
2022/01/12 10:53:37;;;;;;;8.17;4.37;;;;;;;0.96;74.65;95735.50;5069155;28;20220;-75
2022/01/12 10:56:07;;;;;;;8.50;5.47;;;;;;;1.03;74.07;95735.81;5069477;28;20703;-75
2022/01/12 10:58:35;;;;;;;8.70;4.60;;;;;;;1.07;73.70;95737.94;5066898;28;20210;-74
2022/01/12 11:01:04;;;;;;;7.23;4.73;;;;;;;1.14;73.20;95740.78;5057963;28;20321;-75
2022/01/12 11:03:32;;;;;;;10.03;5.20;;;;;;;1.10;72.80;95742.00;5068715;28;20699;-76
2022/01/12 11:06:00;;;;;;;9.30;4.60;;;;;;;0.79;73.44;95745.56;5068919;28;20203;-76
2022/01/12 11:08:29;;;;;;;7.63;4.77;;;;;;;0.66;73.55;95735.59;5070422;28;20224;-76
2022/01/12 11:10:58;;;;;;;7.53;4.40;;;;;;;0.56;74.48;95730.44;5069541;28;20660;-76
2022/01/12 11:13:28;;;;;;;8.47;4.77;;;;;;;0.28;75.08;95726.06;5068361;28;20247;-76
2022/01/12 11:15:57;;;;;;;6.80;4.23;;;;;;;0.30;75.01;95728.47;5070728;28;20615;-74
2022/01/12 11:18:28;;;;;;;9.70;4.53;;;;;;;0.37;75.30;95732.97;5071383;28;20205;-76
2022/01/12 11:21:00;;;;;;;7.43;4.93;;;;;;;0.42;75.69;95737.66;5067761;28;20317;-75
2022/01/12 11:23:36;;;;;;;7.60;4.67;;;;;;;0.20;76.01;95741.22;5068908;28;20197;-76
2022/01/12 11:26:17;;;;;;;7.10;4.27;;;;;;;0.14;76.74;95736.63;5070307;28;20203;-76
2022/01/12 11:28:46;;;;;;;7.90;5.43;;;;;;;-0.02;76.27;95728.59;5064175;28;20193;-75
2022/01/12 11:31:18;;;;;;;7.53;4.53;;;;;;;0.02;76.25;95740.19;5069522;28;20225;-75
2022/01/12 11:33:48;;;;;;;8.10;4.00;;;;;;;-0.16;76.57;95734.84;5069597;28;20212;-75
2022/01/12 11:36:21;;;;;;;6.67;4.43;;;;;;;-0.16;77.52;95729.75;5074180;28;20224;-76
2022/01/12 11:38:53;;;;;;;5.83;3.90;;;;;;;-0.14;77.04;95742.38;5069991;28;20213;-77
2022/01/12 11:41:23;;;;;;;11.27;4.07;;;;;;;-0.15;76.17;95738.22;5068539;28;20225;-76
2022/01/12 11:43:53;;;;;;;8.40;4.00;;;;;;;-0.11;76.29;95744.69;5067820;28;20691;-76
2022/01/12 11:46:22;;;;;;;5.37;3.73;;;;;;;-0.10;76.93;95747.13;5072194;28;20208;-76
2022/01/12 11:48:54;;;;;;;12.17;4.17;;;;;;;-0.17;76.66;95745.19;5064486;28;20202;-76
2022/01/12 11:51:33;;;;;;;5.80;3.93;;;;;;;-0.01;76.91;95748.09;5065962;28;20521;-76
2022/01/12 11:54:06;;;;;;;6.40;3.87;;;;;;;0.09;76.91;95753.28;5062801;28;20205;-79
2022/01/12 11:56:33;;;;;;;5.43;3.77;;;;;;;0.19;76.21;95751.56;5075169;28;20215;-76
2022/01/12 11:59:08;;;;;;;5.57;3.87;;;;;;;0.27;75.99;95752.53;5070310;28;20197;-77
2022/01/12 12:01:48;;;;;;;6.43;4.60;;;;;;;0.24;75.59;95752.78;5071852;28;20343;-76
2022/01/12 12:04:27;;;;;;;7.07;4.20;;;;;;;0.23;76.51;95753.72;5067901;28;20218;-77
2022/01/12 12:07:05;;;;;;;8.10;4.53;;;;;;;0.15;76.23;95758.66;5073112;28;20240;-78
2022/01/12 12:09:44;;;;;;;6.37;4.20;;;;;;;0.13;75.69;95752.06;5074607;28;20204;-80
2022/01/12 12:12:17;;;;;;;6.57;4.07;;;;;;;0.21;75.96;95752.22;5068346;28;20691;-80
2022/01/12 12:14:47;;;;;;;6.87;3.63;;;;;;;0.24;75.66;95764.75;5069925;28;20288;-77
2022/01/12 12:17:15;;;;;;;18.20;3.83;;;;;;;0.19;74.78;95751.56;5075989;28;20193;-81
2022/01/12 12:19:46;;;;;;;5.83;4.03;;;;;;;0.24;74.04;95760.47;5070126;28;20208;-76
2022/01/12 12:22:16;;;;;;;6.17;3.73;;;;;;;0.34;74.83;95766.44;5073306;28;20225;-76
2022/01/12 12:24:46;;;;;;;4.23;3.47;;;;;;;0.36;74.20;95761.19;5073767;28;20296;-78
2022/01/12 12:27:19;;;;;;;4.70;3.63;;;;;;;0.41;74.06;95761.59;5070209;28;20228;-76
2022/01/12 12:29:48;;;;;;;6.13;4.07;;;;;;;0.40;73.97;95758.25;5069854;28;20208;-76
2022/01/12 12:32:17;;;;;;;8.40;3.90;;;;;;;0.33;73.39;95761.44;5069254;28;20574;-76
2022/01/12 12:34:48;;;;;;;5.07;3.50;;;;;;;0.32;73.49;95757.25;5069940;28;21032;-76
2022/01/12 12:37:18;;;;;;;6.93;4.03;;;;;;;0.33;74.13;95748.66;5069773;28;20201;-77
2022/01/12 12:39:47;;;;;;;5.97;3.90;;;;;;;0.26;75.38;95738.13;5069963;28;20197;-76
2022/01/12 12:42:17;;;;;;;4.47;3.40;;;;;;;0.31;74.67;95753.91;5073957;28;20264;-75
2022/01/12 12:44:46;;;;;;;6.20;3.90;;;;;;;0.26;74.73;95737.34;5070731;28;20210;-80
2022/01/12 12:47:15;;;;;;;6.57;3.53;;;;;;;0.33;74.53;95753.78;5070775;28;20208;-77
2022/01/12 12:49:54;;;;;;;7.93;4.07;;;;;;;0.30;73.41;95756.59;5068302;28;20193;-75
2022/01/12 12:52:28;;;;;;;6.33;3.73;;;;;;;0.14;73.73;95751.16;5067263;28;20216;-75
2022/01/12 12:54:57;;;;;;;7.20;4.90;;;;;;;0.17;74.76;95766.22;5069690;28;20678;-77
2022/01/12 12:57:25;;;;;;;5.17;3.77;;;;;;;0.31;73.33;95758.22;5068291;28;20324;-75
2022/01/12 13:00:05;;;;;;;6.77;3.27;;;;;;;0.34;72.46;95752.84;5067366;28;20911;-77
2022/01/12 13:02:37;;;;;;;5.63;3.30;;;;;;;0.47;72.41;95751.69;5068086;28;20287;-77
2022/01/12 13:05:08;;;;;;;4.27;3.40;;;;;;;0.61;71.99;95758.19;5065089;28;20315;-76
2022/01/12 13:07:38;;;;;;;5.93;3.47;;;;;;;1.04;72.12;95763.81;5070808;28;20205;-76
2022/01/12 13:10:07;;;;;;;5.27;3.37;;;;;;;2.09;69.67;95762.16;5074503;28;20201;-78